Time;durP1;ratioP1;P1;durP2;ratioP2;P2;SDS_P1;SDS_P2;PMS_P1;PMS_P2;Temp;Humidity;BMP_temperature;BMP_pressure;BME280_temperature;BME280_humidity;BME280_pressure;Samples;Min_cycle;Max_cycle;Signal;HPM_P1;HPM_P2
2021/05/07 00:00:33;;;;;;;1.90;0.70;;;;;;;;;;5025591;28;20032;-79
2021/05/07 00:02:58;;;;;;;2.83;0.80;;;;;;;;;;5025033;28;20139;-79
2021/05/07 00:05:24;;;;;;;1.80;0.73;;;;;;;;;;5025079;28;20130;-79
2021/05/07 00:07:49;;;;;;;2.37;0.83;;;;;;;;;;5025150;28;20025;-79
2021/05/07 00:10:14;;;;;;;1.50;0.80;;;;;;;;;;5024789;28;20373;-79
2021/05/07 00:12:41;;;;;;;1.90;0.77;;;;;;;;;;5024808;28;20068;-79
2021/05/07 00:15:06;;;;;;;1.90;0.68;;;;;;;;;;5025169;28;20472;-78
2021/05/07 00:17:32;;;;;;;1.70;0.75;;;;;;;;;;5042087;28;20036;-79
2021/05/07 00:19:57;;;;;;;1.93;0.90;;;;;;;;;;5041724;28;20115;-79
2021/05/07 00:22:22;;;;;;;1.57;0.70;;;;;;;;;;5041705;28;20020;-78
2021/05/07 00:24:48;;;;;;;1.40;0.70;;;;;;;;;;5041126;28;20047;-80
2021/05/07 00:27:16;;;;;;;1.63;0.80;;;;;;;;;;5041559;28;20070;-79
2021/05/07 00:29:42;;;;;;;1.85;0.80;;;;;;;;;;5009287;28;20032;-79
2021/05/07 00:32:07;;;;;;;1.88;0.82;;;;;;;;;;5024731;28;20518;-79
2021/05/07 00:34:33;;;;;;;1.50;0.77;;;;;;;;;;5025537;28;20037;-80
2021/05/07 00:36:58;;;;;;;1.00;0.70;;;;;;;;;;5040154;28;20059;-79
2021/05/07 00:39:23;;;;;;;1.77;0.80;;;;;;;;;;5024408;28;20039;-79
2021/05/07 00:41:49;;;;;;;1.83;0.77;;;;;;;;;;5041258;28;20021;-79
2021/05/07 00:44:14;;;;;;;1.53;0.70;;;;;;;;;;5025111;28;20516;-79
2021/05/07 00:46:39;;;;;;;1.70;0.80;;;;;;;;;;5041676;28;20082;-80
2021/05/07 00:49:05;;;;;;;1.00;0.60;;;;;;;;;;5009085;28;20021;-79
2021/05/07 00:51:30;;;;;;;1.83;0.70;;;;;;;;;;5026078;28;20373;-79
2021/05/07 00:53:55;;;;;;;1.50;0.70;;;;;;;;;;5025764;28;20029;-79
2021/05/07 00:56:21;;;;;;;2.00;0.70;;;;;;;;;;5041881;28;20021;-79
2021/05/07 00:58:47;;;;;;;1.63;0.70;;;;;;;;;;5024626;28;20426;-79
2021/05/07 01:01:12;;;;;;;1.70;0.70;;;;;;;;;;5041103;28;20068;-79
2021/05/07 01:03:38;;;;;;;1.47;0.80;;;;;;;;;;5040608;28;20037;-79
2021/05/07 01:06:03;;;;;;;1.10;0.50;;;;;;;;;;5024190;28;20055;-79
2021/05/07 01:08:28;;;;;;;1.30;0.60;;;;;;;;;;5024831;28;20024;-80
2021/05/07 01:10:54;;;;;;;1.53;0.63;;;;;;;;;;5025661;28;20494;-79
2021/05/07 01:13:19;;;;;;;1.80;0.60;;;;;;;;;;5026146;28;20059;-79
2021/05/07 01:15:44;;;;;;;1.90;0.70;;;;;;;;;;5024783;28;20028;-79
2021/05/07 01:18:10;;;;;;;1.03;0.60;;;;;;;;;;5024213;28;20079;-79
2021/05/07 01:20:35;;;;;;;1.67;0.70;;;;;;;;;;5041281;28;20025;-79
2021/05/07 01:23:03;;;;;;;1.40;0.70;;;;;;;;;;5008577;28;20025;-79
2021/05/07 01:25:38;;;;;;;1.38;0.70;;;;;;;;;;5024430;28;20032;-79
2021/05/07 01:28:08;;;;;;;2.33;0.60;;;;;;;;;;5023937;28;20025;-78
2021/05/07 01:30:37;;;;;;;1.77;0.70;;;;;;;;;;5025297;28;20494;-79
2021/05/07 01:33:03;;;;;;;2.75;0.80;;;;;;;;;;5025825;28;20032;-79
2021/05/07 01:35:29;;;;;;;1.27;0.63;;;;;;;;;;5025531;28;20035;-79
2021/05/07 01:37:59;;;;;;;1.75;0.65;;;;;;;;;;5024952;28;20104;-79
2021/05/07 01:40:26;;;;;;;1.35;0.73;;;;;;;;;;5024946;28;20029;-79
2021/05/07 01:42:52;;;;;;;1.75;0.70;;;;;;;;;;5023756;28;20082;-79
2021/05/07 01:45:19;;;;;;;1.77;0.80;;;;;;;;;;5024229;28;20433;-79
2021/05/07 01:47:44;;;;;;;0.93;0.55;;;;;;;;;;5022890;28;20476;-79
2021/05/07 01:50:11;;;;;;;1.10;0.67;;;;;;;;;;5007349;28;20036;-79
2021/05/07 01:52:36;;;;;;;;;;;;;;;;;;5040990;28;20537;-79
2021/05/07 01:55:06;;;;;;;1.08;0.60;;;;;;;;;;5040298;28;19985;-79
2021/05/07 01:57:33;;;;;;;1.42;0.60;;;;;;;;;;5007548;28;20044;-79
2021/05/07 01:59:58;;;;;;;1.88;0.65;;;;;;;;;;5023505;28;20056;-79
2021/05/07 02:02:23;;;;;;;1.10;0.50;;;;;;;;;;5039541;28;20082;-79
2021/05/07 02:04:49;;;;;;;1.20;0.70;;;;;;;;;;5024446;28;20472;-79
2021/05/07 02:07:14;;;;;;;1.20;0.40;;;;;;;;;;5007950;28;20042;-79
2021/05/07 02:09:39;;;;;;;1.50;0.60;;;;;;;;;;5024130;28;20086;-79
2021/05/07 02:12:05;;;;;;;1.53;0.77;;;;;;;;;;5023611;28;20041;-79
2021/05/07 02:14:31;;;;;;;1.17;0.60;;;;;;;;;;5024021;28;20025;-79
2021/05/07 02:16:57;;;;;;;2.13;0.70;;;;;;;;;;5024808;28;20025;-80
2021/05/07 02:19:23;;;;;;;1.10;0.57;;;;;;;;;;5024367;28;20393;-79
2021/05/07 02:21:48;;;;;;;1.17;0.53;;;;;;;;;;5023506;28;20036;-79
2021/05/07 02:24:13;;;;;;;1.97;0.70;;;;;;;;;;5007167;28;20021;-79
2021/05/07 02:26:39;;;;;;;1.43;0.60;;;;;;;;;;5007353;28;20031;-79
2021/05/07 02:29:04;;;;;;;2.03;0.70;;;;;;;;;;5023464;28;20029;-79
2021/05/07 02:31:30;;;;;;;1.27;0.70;;;;;;;;;;5024079;28;20040;-79
2021/05/07 02:33:55;;;;;;;2.00;0.60;;;;;;;;;;5007646;28;20037;-79
2021/05/07 02:36:21;;;;;;;1.63;0.63;;;;;;;;;;5040795;28;20036;-79
2021/05/07 02:38:46;;;;;;;1.47;0.60;;;;;;;;;;5007428;28;20372;-79
2021/05/07 02:41:11;;;;;;;1.90;0.60;;;;;;;;;;5006906;28;20038;-79
2021/05/07 02:43:37;;;;;;;1.63;0.70;;;;;;;;;;5023351;28;20021;-79
2021/05/07 02:46:02;;;;;;;1.50;0.60;;;;;;;;;;5023546;28;20503;-79
2021/05/07 02:48:27;;;;;;;0.80;0.50;;;;;;;;;;5023041;28;20471;-79
2021/05/07 02:50:52;;;;;;;0.87;0.50;;;;;;;;;;5023445;28;20060;-79
2021/05/07 02:53:18;;;;;;;0.90;0.60;;;;;;;;;;5023287;28;20090;-80
2021/05/07 02:55:43;;;;;;;1.20;0.70;;;;;;;;;;5004020;28;20117;-82
2021/05/07 02:58:12;;;;;;;1.53;0.70;;;;;;;;;;5028787;28;20044;-83
2021/05/07 03:00:37;;;;;;;1.10;0.50;;;;;;;;;;5043643;28;20029;-83
2021/05/07 03:03:03;;;;;;;0.70;0.50;;;;;;;;;;5028099;28;20069;-82
2021/05/07 03:05:28;;;;;;;1.00;0.50;;;;;;;;;;5029837;28;20032;-82
2021/05/07 03:07:53;;;;;;;1.87;0.60;;;;;;;;;;5042861;28;20035;-81
2021/05/07 03:10:19;;;;;;;1.10;0.40;;;;;;;;;;5028965;28;20025;-82
2021/05/07 03:12:44;;;;;;;0.65;0.40;;;;;;;;;;5032273;28;20028;-84
2021/05/07 03:15:11;;;;;;;0.80;0.50;;;;;;;;;;5045458;28;20036;-81
2021/05/07 03:17:36;;;;;;;1.15;0.50;;;;;;;;;;5028667;28;20075;-81
2021/05/07 03:20:03;;;;;;;0.90;0.50;;;;;;;;;;5026160;28;20488;-82
2021/05/07 03:22:29;;;;;;;0.90;0.50;;;;;;;;;;5011057;28;20029;-81
2021/05/07 03:24:54;;;;;;;1.07;0.50;;;;;;;;;;5010802;28;20470;-81
2021/05/07 03:27:19;;;;;;;1.47;0.60;;;;;;;;;;5026979;28;20024;-80
2021/05/07 03:29:45;;;;;;;1.13;0.50;;;;;;;;;;5019302;28;20068;-82
2021/05/07 03:32:10;;;;;;;1.63;0.70;;;;;;;;;;5026451;28;20327;-80
2021/05/07 03:34:35;;;;;;;1.33;0.50;;;;;;;;;;5009410;28;20025;-82
2021/05/07 03:37:01;;;;;;;0.93;0.57;;;;;;;;;;5010709;28;20025;-81
2021/05/07 03:39:26;;;;;;;1.10;0.60;;;;;;;;;;5026898;28;20082;-82
2021/05/07 03:41:51;;;;;;;0.57;0.30;;;;;;;;;;5029585;28;20025;-81
2021/05/07 03:44:17;;;;;;;0.90;0.50;;;;;;;;;;5036587;28;20124;-82
2021/05/07 03:46:42;;;;;;;1.40;0.67;;;;;;;;;;4990665;28;20114;-82
2021/05/07 03:49:08;;;;;;;1.67;0.50;;;;;;;;;;5008148;28;20063;-81
2021/05/07 03:51:33;;;;;;;2.07;0.70;;;;;;;;;;5009882;28;20444;-84
2021/05/07 03:53:58;;;;;;;1.17;0.50;;;;;;;;;;5008456;28;20445;-81
2021/05/07 03:56:23;;;;;;;1.60;0.60;;;;;;;;;;5009389;28;20075;-82
2021/05/07 03:58:49;;;;;;;1.03;0.47;;;;;;;;;;5022362;28;20029;-79
2021/05/07 04:01:14;;;;;;;0.80;0.40;;;;;;;;;;5037396;28;20577;-78
2021/05/07 04:03:39;;;;;;;1.20;0.50;;;;;;;;;;5003472;28;20467;-79
2021/05/07 04:06:07;;;;;;;0.80;0.40;;;;;;;;;;5018334;28;20078;-79
2021/05/07 04:08:35;;;;;;;1.00;0.45;;;;;;;;;;5004142;28;20063;-78
2021/05/07 04:11:30;;;;;;;1.88;0.60;;;;;;;;;;5022042;28;20031;-79
2021/05/07 04:13:46;;;;;;;0.73;0.50;;;;;;;;;;5027194;28;20036;-80
2021/05/07 04:16:11;;;;;;;0.87;0.50;;;;;;;;;;5005674;28;20112;-80
2021/05/07 04:18:38;;;;;;;0.77;0.50;;;;;;;;;;5021758;28;20468;-79
2021/05/07 04:21:03;;;;;;;0.55;0.40;;;;;;;;;;5055679;28;20091;-79
2021/05/07 04:23:29;;;;;;;0.73;0.43;;;;;;;;;;5021368;28;20122;-79
2021/05/07 04:25:54;;;;;;;1.00;0.43;;;;;;;;;;5037380;28;20075;-80
2021/05/07 04:28:20;;;;;;;0.80;0.40;;;;;;;;;;5004981;28;20033;-80
2021/05/07 04:30:46;;;;;;;0.98;0.50;;;;;;;;;;5004409;28;20032;-81
2021/05/07 04:33:11;;;;;;;1.20;0.47;;;;;;;;;;5037930;28;20035;-81
2021/05/07 04:35:36;;;;;;;0.67;0.50;;;;;;;;;;5037667;28;20028;-80
2021/05/07 04:38:03;;;;;;;1.77;0.60;;;;;;;;;;5005592;28;20041;-81
2021/05/07 04:40:28;;;;;;;1.13;0.50;;;;;;;;;;5037456;28;20029;-80
2021/05/07 04:42:53;;;;;;;0.83;0.50;;;;;;;;;;5037694;28;20384;-78
2021/05/07 04:45:18;;;;;;;1.10;0.50;;;;;;;;;;5055294;28;20182;-79
2021/05/07 04:47:44;;;;;;;1.00;0.53;;;;;;;;;;5037182;28;20025;-79
2021/05/07 04:50:11;;;;;;;1.23;0.70;;;;;;;;;;5021867;28;20068;-80
2021/05/07 04:52:36;;;;;;;0.90;0.50;;;;;;;;;;5020942;28;20480;-81
2021/05/07 04:55:01;;;;;;;0.60;0.30;;;;;;;;;;5037361;28;20102;-80
2021/05/07 04:57:28;;;;;;;0.83;0.40;;;;;;;;;;5055714;28;20499;-81
2021/05/07 04:59:53;;;;;;;;;;;;;;;;;;5020675;28;20123;-81
2021/05/07 05:02:21;;;;;;;2.08;0.40;;;;;;;;;;5021021;28;20398;-80
2021/05/07 05:04:46;;;;;;;1.00;0.40;;;;;;;;;;5004936;28;20021;-81
2021/05/07 05:07:11;;;;;;;1.43;0.50;;;;;;;;;;5054938;28;20124;-80
2021/05/07 05:09:37;;;;;;;1.83;0.50;;;;;;;;;;5054998;28;20113;-80
2021/05/07 05:12:03;;;;;;;0.60;0.37;;;;;;;;;;5037348;28;20053;-80
2021/05/07 05:14:28;;;;;;;1.20;0.40;;;;;;;;;;5037198;28;20044;-80
2021/05/07 05:16:53;;;;;;;0.50;0.30;;;;;;;;;;5037058;28;20012;-80
2021/05/07 05:19:19;;;;;;;0.50;0.30;;;;;;;;;;5036623;28;20468;-80
2021/05/07 05:21:44;;;;;;;0.70;0.40;;;;;;;;;;5036851;28;20060;-79
2021/05/07 05:24:09;;;;;;;0.77;0.40;;;;;;;;;;5036802;28;20063;-81
2021/05/07 05:26:35;;;;;;;0.87;0.40;;;;;;;;;;5020620;28;20029;-80
2021/05/07 05:29:00;;;;;;;0.80;0.40;;;;;;;;;;5036768;28;20096;-80
2021/05/07 05:31:26;;;;;;;0.80;0.50;;;;;;;;;;5036447;28;20053;-81
2021/05/07 05:33:51;;;;;;;0.50;0.40;;;;;;;;;;5005381;28;20432;-79
2021/05/07 05:36:17;;;;;;;1.03;0.40;;;;;;;;;;5022594;28;20392;-79
2021/05/07 05:38:42;;;;;;;0.82;0.50;;;;;;;;;;5040207;28;20063;-79
2021/05/07 05:41:09;;;;;;;0.93;0.50;;;;;;;;;;5039607;28;20033;-78
2021/05/07 05:43:34;;;;;;;;;;;;;;;;;;5040667;28;20025;-79
2021/05/07 05:46:00;;;;;;;0.63;0.30;;;;;;;;;;5058161;28;20003;-80
2021/05/07 05:48:25;;;;;;;1.40;0.40;;;;;;;;;;5040597;28;20021;-79
2021/05/07 05:50:51;;;;;;;0.50;0.30;;;;;;;;;;5040349;28;20024;-79
2021/05/07 05:53:17;;;;;;;0.82;0.40;;;;;;;;;;5007845;28;20024;-79
2021/05/07 05:55:42;;;;;;;0.63;0.30;;;;;;;;;;5040291;28;20029;-79
2021/05/07 05:58:08;;;;;;;1.23;0.50;;;;;;;;;;5058251;28;20021;-78
2021/05/07 06:00:33;;;;;;;2.30;0.60;;;;;;;;;;5023203;28;20029;-78
2021/05/07 06:02:59;;;;;;;1.83;0.43;;;;;;;;;;5022868;28;20064;-79
2021/05/07 06:05:24;;;;;;;3.50;0.50;;;;;;;;;;5023273;28;20044;-78
2021/05/07 06:07:50;;;;;;;1.00;0.40;;;;;;;;;;5006718;28;20060;-79
2021/05/07 06:10:16;;;;;;;0.80;0.40;;;;;;;;;;5023283;28;20496;-79
2021/05/07 06:12:42;;;;;;;1.15;0.43;;;;;;;;;;5039681;28;20032;-79
2021/05/07 06:15:08;;;;;;;0.90;0.43;;;;;;;;;;5038956;28;20033;-78
2021/05/07 06:17:34;;;;;;;1.27;0.40;;;;;;;;;;5022849;28;20056;-78
2021/05/07 06:20:03;;;;;;;0.90;0.40;;;;;;;;;;5006682;28;20025;-78
2021/05/07 06:22:29;;;;;;;1.05;0.40;;;;;;;;;;5039630;28;20032;-79
2021/05/07 06:24:55;;;;;;;1.05;0.40;;;;;;;;;;5022705;28;20017;-79
2021/05/07 06:27:20;;;;;;;1.20;0.40;;;;;;;;;;5020156;28;20037;-79
2021/05/07 06:29:46;;;;;;;1.40;0.37;;;;;;;;;;5024400;28;20052;-81
2021/05/07 06:32:11;;;;;;;0.97;0.40;;;;;;;;;;5027312;28;20056;-81
2021/05/07 06:34:36;;;;;;;1.23;0.30;;;;;;;;;;5034462;28;20056;-81
2021/05/07 06:37:02;;;;;;;1.97;0.57;;;;;;;;;;5035396;28;20040;-81
2021/05/07 06:39:30;;;;;;;1.90;0.50;;;;;;;;;;5021020;28;20102;-84
2021/05/07 06:41:57;;;;;;;0.63;0.40;;;;;;;;;;5035978;28;20602;-80
2021/05/07 06:44:23;;;;;;;0.93;0.40;;;;;;;;;;5003977;28;20029;-80
2021/05/07 06:46:48;;;;;;;1.53;0.33;;;;;;;;;;5020273;28;20545;-80
2021/05/07 06:49:14;;;;;;;0.87;0.43;;;;;;;;;;5003986;28;20454;-80
2021/05/07 06:51:39;;;;;;;1.67;0.40;;;;;;;;;;5019397;28;20035;-80
2021/05/07 06:54:06;;;;;;;0.73;0.40;;;;;;;;;;5002724;28;20179;-80
2021/05/07 06:56:31;;;;;;;1.05;0.40;;;;;;;;;;5019864;28;20075;-81
2021/05/07 06:58:57;;;;;;;0.90;0.40;;;;;;;;;;5019490;28;20105;-81
2021/05/07 07:01:22;;;;;;;0.70;0.37;;;;;;;;;;5019189;28;20057;-80
2021/05/07 07:03:47;;;;;;;0.83;0.43;;;;;;;;;;5019349;28;20029;-80
2021/05/07 07:06:13;;;;;;;1.70;0.40;;;;;;;;;;5004173;28;20108;-81
2021/05/07 07:08:38;;;;;;;0.60;0.37;;;;;;;;;;5022880;28;20503;-81
2021/05/07 07:11:03;;;;;;;0.70;0.30;;;;;;;;;;5007342;28;20440;-82
2021/05/07 07:13:29;;;;;;;1.63;0.30;;;;;;;;;;5008268;28;20036;-81
2021/05/07 07:15:54;;;;;;;1.07;0.40;;;;;;;;;;5006660;28;20052;-82
2021/05/07 07:18:20;;;;;;;0.60;0.40;;;;;;;;;;5006313;28;20490;-81
2021/05/07 07:20:45;;;;;;;0.68;0.40;;;;;;;;;;5006471;28;20395;-82
2021/05/07 07:23:11;;;;;;;1.13;0.50;;;;;;;;;;5023242;28;20075;-82
2021/05/07 07:25:36;;;;;;;0.57;0.30;;;;;;;;;;5023768;28;20467;-80
2021/05/07 07:28:04;;;;;;;0.87;0.30;;;;;;;;;;5002450;28;20034;-81
2021/05/07 07:30:29;;;;;;;0.85;0.40;;;;;;;;;;5012396;28;20079;-81
2021/05/07 07:32:54;;;;;;;0.57;0.30;;;;;;;;;;5023577;28;20033;-82
2021/05/07 07:35:21;;;;;;;0.87;0.40;;;;;;;;;;5023297;28;20028;-82
2021/05/07 07:37:46;;;;;;;;;;;;;;;;;;5005390;28;20021;-81
2021/05/07 07:40:12;;;;;;;0.50;0.30;;;;;;;;;;5021100;28;19913;-81
2021/05/07 07:42:37;;;;;;;1.10;0.50;;;;;;;;;;5004727;28;20025;-82
2021/05/07 07:45:04;;;;;;;1.73;0.50;;;;;;;;;;5038594;28;20268;-82
2021/05/07 07:47:29;;;;;;;0.50;0.30;;;;;;;;;;5024924;28;20040;-82
2021/05/07 07:49:54;;;;;;;0.67;0.30;;;;;;;;;;5025140;28;20052;-81
2021/05/07 07:52:20;;;;;;;1.80;0.40;;;;;;;;;;5008487;28;20044;-80
2021/05/07 07:54:45;;;;;;;0.50;0.30;;;;;;;;;;5041381;28;20060;-80
2021/05/07 07:57:10;;;;;;;1.30;0.40;;;;;;;;;;5009088;28;20037;-81
2021/05/07 07:59:36;;;;;;;0.83;0.60;;;;;;;;;;5042254;28;20052;-81
2021/05/07 08:02:01;;;;;;;0.83;0.40;;;;;;;;;;5041553;28;20507;-82
2021/05/07 08:04:27;;;;;;;0.93;0.40;;;;;;;;;;5025612;28;20032;-82
2021/05/07 08:06:52;;;;;;;1.00;0.30;;;;;;;;;;5026018;28;20013;-82
2021/05/07 08:09:17;;;;;;;1.53;0.30;;;;;;;;;;5024698;28;20048;-83
2021/05/07 08:11:43;;;;;;;0.77;0.40;;;;;;;;;;5023749;28;20021;-81
2021/05/07 08:14:08;;;;;;;1.00;0.40;;;;;;;;;;5025091;28;20094;-81
2021/05/07 08:16:33;;;;;;;3.30;0.60;;;;;;;;;;5040720;28;20482;-81
2021/05/07 08:18:59;;;;;;;0.70;0.40;;;;;;;;;;5005704;28;20431;-80
2021/05/07 08:21:25;;;;;;;0.60;0.30;;;;;;;;;;5038806;28;20150;-81
2021/05/07 08:23:51;;;;;;;1.15;0.40;;;;;;;;;;5023765;28;20100;-81
2021/05/07 08:26:16;;;;;;;0.70;0.40;;;;;;;;;;5023850;28;20063;-81
2021/05/07 08:28:42;;;;;;;1.20;0.40;;;;;;;;;;5024895;28;20091;-81
2021/05/07 08:31:07;;;;;;;0.90;0.30;;;;;;;;;;5024906;28;20029;-83
2021/05/07 08:33:32;;;;;;;0.50;0.33;;;;;;;;;;5042428;28;20048;-81
2021/05/07 08:35:58;;;;;;;1.10;0.57;;;;;;;;;;5040581;28;20061;-81
2021/05/07 08:38:23;;;;;;;0.63;0.40;;;;;;;;;;5025616;28;20021;-81
2021/05/07 08:40:48;;;;;;;0.60;0.40;;;;;;;;;;5025044;28;20036;-82
2021/05/07 08:43:14;;;;;;;0.50;0.40;;;;;;;;;;5025320;28;20036;-82
2021/05/07 08:45:40;;;;;;;1.58;0.50;;;;;;;;;;5006649;28;20524;-81
2021/05/07 08:48:05;;;;;;;0.77;0.40;;;;;;;;;;5006850;28;20075;-83
2021/05/07 08:50:31;;;;;;;1.53;0.40;;;;;;;;;;5024175;28;20072;-81
2021/05/07 08:52:56;;;;;;;0.93;0.40;;;;;;;;;;5005869;28;20476;-80
2021/05/07 08:55:22;;;;;;;0.60;0.30;;;;;;;;;;5039889;28;20071;-81
2021/05/07 08:57:47;;;;;;;1.83;0.50;;;;;;;;;;5041035;28;20081;-83
2021/05/07 09:00:13;;;;;;;1.00;0.40;;;;;;;;;;5025992;28;20060;-81
2021/05/07 09:02:39;;;;;;;1.15;0.40;;;;;;;;;;5010402;28;20075;-82
2021/05/07 09:05:05;;;;;;;1.03;0.40;;;;;;;;;;5024129;28;20025;-81
2021/05/07 09:07:30;;;;;;;0.93;0.30;;;;;;;;;;5022977;28;20422;-81
2021/05/07 09:10:03;;;;;;;0.87;0.40;;;;;;;;;;5007739;28;20025;-80
2021/05/07 09:12:29;;;;;;;0.90;0.32;;;;;;;;;;5025278;28;20025;-82
2021/05/07 09:14:55;;;;;;;0.63;0.40;;;;;;;;;;5024151;28;20025;-80
2021/05/07 09:17:21;;;;;;;1.37;0.43;;;;;;;;;;5007648;28;20109;-81
2021/05/07 09:19:46;;;;;;;1.02;0.40;;;;;;;;;;5023927;28;20116;-80
2021/05/07 09:22:21;;;;;;;0.50;0.30;;;;;;;;;;5022457;28;20068;-80
2021/05/07 09:24:47;;;;;;;1.52;0.40;;;;;;;;;;5037959;28;20040;-79
2021/05/07 09:27:20;;;;;;;1.20;0.40;;;;;;;;;;5019052;28;20546;-79
2021/05/07 09:29:45;;;;;;;1.55;0.40;;;;;;;;;;5019110;28;20024;-80
2021/05/07 09:32:10;;;;;;;1.23;0.40;;;;;;;;;;5036940;28;20524;-79
2021/05/07 09:34:37;;;;;;;0.87;0.33;;;;;;;;;;5037463;28;20676;-79
2021/05/07 09:37:12;;;;;;;0.65;0.40;;;;;;;;;;5020798;28;20025;-80
2021/05/07 09:39:37;;;;;;;1.45;0.40;;;;;;;;;;5036936;28;20020;-80
2021/05/07 09:42:03;;;;;;;0.77;0.40;;;;;;;;;;5020388;28;20108;-81
2021/05/07 09:44:28;;;;;;;1.30;0.33;;;;;;;;;;5036842;28;20043;-80
2021/05/07 09:46:54;;;;;;;0.93;0.50;;;;;;;;;;5019132;28;20166;-79
2021/05/07 09:49:26;;;;;;;0.93;0.40;;;;;;;;;;4987773;28;20025;-79
2021/05/07 09:51:52;;;;;;;0.43;0.30;;;;;;;;;;5000308;28;20443;-81
2021/05/07 09:54:17;;;;;;;1.53;0.50;;;;;;;;;;5003345;28;20048;-81
2021/05/07 09:56:43;;;;;;;0.60;0.30;;;;;;;;;;5003562;28;20048;-80
2021/05/07 09:59:09;;;;;;;1.10;0.40;;;;;;;;;;5005282;28;20062;-81
2021/05/07 10:01:34;;;;;;;0.83;0.33;;;;;;;;;;5005512;28;20025;-80
2021/05/07 10:04:01;;;;;;;1.33;0.30;;;;;;;;;;5004587;28;20052;-80
2021/05/07 10:06:27;;;;;;;1.30;0.43;;;;;;;;;;5020666;28;20105;-81
2021/05/07 10:08:52;;;;;;;1.00;0.50;;;;;;;;;;5018836;28;20036;-83
2021/05/07 10:11:18;;;;;;;0.80;0.30;;;;;;;;;;5002898;28;20392;-81
2021/05/07 10:13:44;;;;;;;1.15;0.40;;;;;;;;;;5019892;28;20082;-80
2021/05/07 10:16:09;;;;;;;0.87;0.30;;;;;;;;;;5003730;28;20049;-82
2021/05/07 10:18:37;;;;;;;0.60;0.33;;;;;;;;;;5006315;28;20029;-83
2021/05/07 10:21:09;;;;;;;1.42;0.40;;;;;;;;;;5016781;28;20059;-85
2021/05/07 10:23:35;;;;;;;1.02;0.50;;;;;;;;;;5017209;28;20029;-84
2021/05/07 10:26:09;;;;;;;0.83;0.40;;;;;;;;;;5016610;28;20025;-83
2021/05/07 10:28:52;;;;;;;1.20;0.50;;;;;;;;;;5015667;28;20347;-84
2021/05/07 10:31:20;;;;;;;1.20;0.40;;;;;;;;;;5015080;28;20068;-79
2021/05/07 10:33:58;;;;;;;2.47;0.65;;;;;;;;;;5015428;28;20133;-81
2021/05/07 10:36:39;;;;;;;1.40;0.47;;;;;;;;;;5017003;28;20496;-78
2021/05/07 10:39:18;;;;;;;1.10;0.43;;;;;;;;;;5017571;28;20485;-78
2021/05/07 10:41:43;;;;;;;1.75;0.70;;;;;;;;;;4996934;28;20568;-78
2021/05/07 10:44:09;;;;;;;1.37;0.63;;;;;;;;;;4998132;28;20090;-78
2021/05/07 10:46:35;;;;;;;1.45;0.70;;;;;;;;;;5014730;28;20033;-78
2021/05/07 10:49:00;;;;;;;1.47;0.70;;;;;;;;;;4999556;28;20057;-78
2021/05/07 10:51:27;;;;;;;1.33;0.47;;;;;;;;;;4998834;28;20073;-77
2021/05/07 10:53:52;;;;;;;;;;;;;;;;;;5015978;28;20029;-78
2021/05/07 10:56:22;;;;;;;2.17;0.75;;;;;;;;;;5014972;28;19999;-78
2021/05/07 10:58:49;;;;;;;2.28;0.70;;;;;;;;;;4996358;28;20075;-78
2021/05/07 11:01:23;;;;;;;1.67;0.70;;;;;;;;;;4995908;28;20041;-78
2021/05/07 11:04:05;;;;;;;2.63;0.80;;;;;;;;;;4997428;28;20056;-78
2021/05/07 11:06:45;;;;;;;2.60;0.80;;;;;;;;;;5014334;28;20029;-78
2021/05/07 11:09:23;;;;;;;1.80;0.75;;;;;;;;;;5013286;28;20030;-78
2021/05/07 11:11:49;;;;;;;2.38;0.88;;;;;;;;;;5011683;28;20021;-77
2021/05/07 11:14:15;;;;;;;;;;;;;;;;;;5016409;28;20033;-78
2021/05/07 11:16:42;;;;;;;2.90;0.90;;;;;;;;;;5019081;28;19920;-78
2021/05/07 11:19:07;;;;;;;;;;;;;;;;;;5020178;28;20026;-78
2021/05/07 11:21:32;;;;;;;2.28;0.77;;;;;;;;;;5022578;28;19919;-78
2021/05/07 11:23:59;;;;;;;2.27;0.90;;;;;;;;;;5023393;28;20049;-78
2021/05/07 11:26:34;;;;;;;1.52;0.75;;;;;;;;;;4991326;28;20503;-79
2021/05/07 11:29:00;;;;;;;1.88;0.88;;;;;;;;;;5024514;28;20487;-78
2021/05/07 11:31:28;;;;;;;2.80;1.07;;;;;;;;;;5006130;28;20112;-78
2021/05/07 11:33:53;;;;;;;3.22;1.05;;;;;;;;;;4990304;28;20031;-78
2021/05/07 11:36:19;;;;;;;2.67;1.03;;;;;;;;;;5024030;28;20060;-79
2021/05/07 11:38:44;;;;;;;3.03;1.10;;;;;;;;;;5023530;28;20431;-78
2021/05/07 11:41:23;;;;;;;1.90;0.83;;;;;;;;;;5023658;28;20447;-80
2021/05/07 11:43:50;;;;;;;3.47;1.10;;;;;;;;;;5007156;28;20017;-79
2021/05/07 11:46:16;;;;;;;2.25;0.90;;;;;;;;;;5007215;28;20032;-78
2021/05/07 11:48:49;;;;;;;2.90;1.00;;;;;;;;;;5023681;28;20042;-78
2021/05/07 11:51:14;;;;;;;2.83;1.25;;;;;;;;;;5006252;28;20091;-78
2021/05/07 11:53:40;;;;;;;3.47;1.20;;;;;;;;;;4989954;28;20079;-80
2021/05/07 11:56:06;;;;;;;3.87;1.40;;;;;;;;;;5023413;28;20044;-78
2021/05/07 11:58:35;;;;;;;3.67;1.40;;;;;;;;;;5015535;28;20132;-78
2021/05/07 12:01:03;;;;;;;3.35;1.50;;;;;;;;;;4998333;28;20297;-77
2021/05/07 12:03:39;;;;;;;3.65;1.40;;;;;;;;;;4998528;28;20025;-78
2021/05/07 12:06:17;;;;;;;3.83;1.30;;;;;;;;;;4997985;28;20029;-78
2021/05/07 12:08:43;;;;;;;3.75;1.40;;;;;;;;;;5014847;28;20457;-78
2021/05/07 12:11:09;;;;;;;3.07;1.27;;;;;;;;;;4997900;28;20060;-77
2021/05/07 12:13:35;;;;;;;4.07;1.45;;;;;;;;;;5014561;28;20052;-77
2021/05/07 12:16:00;;;;;;;3.87;1.33;;;;;;;;;;4999640;28;20040;-78
2021/05/07 12:18:26;;;;;;;2.93;1.37;;;;;;;;;;5003242;28;20021;-78
2021/05/07 12:20:57;;;;;;;3.83;1.50;;;;;;;;;;4986548;28;20025;-78
2021/05/07 12:23:23;;;;;;;3.08;1.30;;;;;;;;;;5003791;28;20053;-77
2021/05/07 12:25:49;;;;;;;3.83;1.50;;;;;;;;;;4999516;28;20040;-78
2021/05/07 12:28:19;;;;;;;3.20;1.52;;;;;;;;;;5015677;28;20037;-78
2021/05/07 12:30:45;;;;;;;3.33;1.52;;;;;;;;;;5013634;28;20029;-78
2021/05/07 12:33:24;;;;;;;3.80;1.50;;;;;;;;;;5014219;28;20079;-77
2021/05/07 12:35:54;;;;;;;3.72;1.30;;;;;;;;;;5014766;28;20562;-78
2021/05/07 12:38:25;;;;;;;2.97;1.38;;;;;;;;;;5015100;28;20555;-77
2021/05/07 12:40:57;;;;;;;3.75;1.40;;;;;;;;;;5033510;28;20052;-78
2021/05/07 12:43:23;;;;;;;3.13;1.42;;;;;;;;;;5018993;28;20044;-78
2021/05/07 12:45:49;;;;;;;3.93;1.60;;;;;;;;;;5014601;28;20113;-77
2021/05/07 12:48:15;;;;;;;4.80;1.53;;;;;;;;;;4997775;28;20148;-79
2021/05/07 12:50:41;;;;;;;4.28;1.60;;;;;;;;;;5015020;28;20040;-78
2021/05/07 12:53:10;;;;;;;4.07;1.63;;;;;;;;;;5014959;28;20044;-78
2021/05/07 12:55:39;;;;;;;3.13;1.45;;;;;;;;;;4999361;28;20557;-78
2021/05/07 12:58:04;;;;;;;3.65;1.60;;;;;;;;;;5015655;28;20036;-78
2021/05/07 13:00:30;;;;;;;4.03;1.90;;;;;;;;;;5014271;28;20030;-78
2021/05/07 13:02:55;;;;;;;3.83;1.40;;;;;;;;;;5014356;28;20103;-78
2021/05/07 13:05:24;;;;;;;3.37;1.47;;;;;;;;;;5015436;28;20045;-77
2021/05/07 13:07:50;;;;;;;4.20;1.75;;;;;;;;;;4993733;28;20043;-78
2021/05/07 13:10:15;;;;;;;5.20;1.77;;;;;;;;;;5037929;28;20017;-78
2021/05/07 13:12:41;;;;;;;4.77;1.77;;;;;;;;;;5021036;28;20059;-78
2021/05/07 13:15:07;;;;;;;4.53;1.70;;;;;;;;;;5037613;28;20052;-78
2021/05/07 13:17:33;;;;;;;4.30;1.60;;;;;;;;;;5020991;28;20055;-77
2021/05/07 13:19:58;;;;;;;4.18;1.65;;;;;;;;;;5037362;28;20029;-77
2021/05/07 13:22:23;;;;;;;5.03;1.80;;;;;;;;;;5020725;28;20052;-77
2021/05/07 13:24:49;;;;;;;4.37;1.53;;;;;;;;;;5037272;28;20049;-77
2021/05/07 13:27:14;;;;;;;4.33;1.73;;;;;;;;;;5002295;28;20472;-77
2021/05/07 13:29:39;;;;;;;3.93;1.67;;;;;;;;;;5035095;28;20391;-77
2021/05/07 13:32:06;;;;;;;4.07;1.73;;;;;;;;;;5001044;28;20454;-77
2021/05/07 13:34:31;;;;;;;4.30;1.90;;;;;;;;;;5001270;28;20031;-78
2021/05/07 13:36:57;;;;;;;3.80;1.73;;;;;;;;;;5017901;28;20100;-78
2021/05/07 13:39:22;;;;;;;4.47;1.70;;;;;;;;;;4984736;28;20021;-77
2021/05/07 13:41:47;;;;;;;3.67;1.70;;;;;;;;;;5017248;28;20121;-77
2021/05/07 13:44:13;;;;;;;5.40;1.90;;;;;;;;;;5016591;28;20082;-78
2021/05/07 13:46:38;;;;;;;6.33;2.03;;;;;;;;;;5017845;28;20026;-78
2021/05/07 13:49:03;;;;;;;4.60;1.80;;;;;;;;;;5035969;28;20049;-77
2021/05/07 13:51:29;;;;;;;5.13;1.93;;;;;;;;;;5037065;28;20112;-77
2021/05/07 13:53:54;;;;;;;5.50;1.70;;;;;;;;;;5020378;28;20025;-77
2021/05/07 13:56:19;;;;;;;5.13;1.97;;;;;;;;;;5037093;28;20432;-78
2021/05/07 13:58:45;;;;;;;4.20;1.60;;;;;;;;;;5054944;28;20029;-77
2021/05/07 14:01:10;;;;;;;4.73;2.00;;;;;;;;;;5036974;28;20063;-77
2021/05/07 14:03:35;;;;;;;4.20;1.60;;;;;;;;;;5037060;28;20043;-77
2021/05/07 14:06:01;;;;;;;4.33;1.80;;;;;;;;;;5037327;28;20060;-78
2021/05/07 14:08:26;;;;;;;4.50;1.90;;;;;;;;;;5037686;28;20025;-77
2021/05/07 14:10:51;;;;;;;4.83;1.97;;;;;;;;;;5037129;28;20021;-78
2021/05/07 14:13:17;;;;;;;4.53;1.90;;;;;;;;;;5020316;28;20115;-77
2021/05/07 14:15:42;;;;;;;3.87;1.60;;;;;;;;;;5037343;28;20116;-78
2021/05/07 14:18:08;;;;;;;4.47;1.80;;;;;;;;;;5036880;28;20048;-78
2021/05/07 14:20:33;;;;;;;4.77;1.77;;;;;;;;;;5020214;28;20021;-78
2021/05/07 14:22:59;;;;;;;4.83;2.00;;;;;;;;;;5036496;28;20056;-77
2021/05/07 14:25:24;;;;;;;4.93;1.90;;;;;;;;;;5036496;28;20024;-77
2021/05/07 14:27:50;;;;;;;5.27;1.93;;;;;;;;;;5036382;28;20084;-77
2021/05/07 14:30:16;;;;;;;3.53;1.67;;;;;;;;;;5036564;28;20021;-78
2021/05/07 14:32:43;;;;;;;4.38;1.95;;;;;;;;;;5036490;28;20021;-77
2021/05/07 14:35:09;;;;;;;4.35;1.85;;;;;;;;;;5020117;28;20043;-78
2021/05/07 14:37:34;;;;;;;4.13;1.77;;;;;;;;;;5036278;28;20020;-77
2021/05/07 14:39:59;;;;;;;3.93;1.80;;;;;;;;;;5019880;28;20039;-77